Time;durP1;ratioP1;P1;durP2;ratioP2;P2;SDS_P1;SDS_P2;PMS_P1;PMS_P2;Temp;Humidity;BMP_temperature;BMP_pressure;BME280_temperature;BME280_humidity;BME280_pressure;Samples;Min_cycle;Max_cycle;Signal;HPM_P1;HPM_P2
2023/01/18 00:00:51;;;;;;;11.33;5.77;;;;;;;;;;5020117;28;20210;-68
2023/01/18 00:03:17;;;;;;;13.70;6.63;;;;;;;;;;5021661;28;20250;-67
2023/01/18 00:05:42;;;;;;;12.10;5.93;;;;;;;;;;5037368;28;20216;-67
2023/01/18 00:08:12;;;;;;;11.93;6.57;;;;;;;;;;5037514;28;20665;-67
2023/01/18 00:10:38;;;;;;;13.30;6.27;;;;;;;;;;5028728;28;20214;-67
2023/01/18 00:13:05;;;;;;;12.27;5.73;;;;;;;;;;5027446;28;20220;-67
2023/01/18 00:15:31;;;;;;;12.37;6.33;;;;;;;;;;5031120;28;20264;-67
2023/01/18 00:17:56;;;;;;;12.70;5.97;;;;;;;;;;5033364;28;20220;-67
2023/01/18 00:20:25;;;;;;;14.37;7.03;;;;;;;;;;5026054;28;20178;-67
2023/01/18 00:22:50;;;;;;;15.03;6.57;;;;;;;;;;5027763;28;20237;-67
2023/01/18 00:25:17;;;;;;;13.53;6.70;;;;;;;;;;5029030;28;20245;-67
2023/01/18 00:27:48;;;;;;;11.80;6.37;;;;;;;;;;5027570;28;20263;-67
2023/01/18 00:30:16;;;;;;;14.27;6.83;;;;;;;;;;5028715;28;20190;-67
2023/01/18 00:32:42;;;;;;;14.97;7.20;;;;;;;;;;5025291;28;20268;-67
2023/01/18 00:35:08;;;;;;;13.47;6.93;;;;;;;;;;5022944;28;20644;-66
2023/01/18 00:37:34;;;;;;;12.37;6.37;;;;;;;;;;5039563;28;20262;-66
2023/01/18 00:40:00;;;;;;;15.90;7.13;;;;;;;;;;5036047;28;20711;-66
2023/01/18 00:45:09;;;;;;;11.13;7.13;;;;;;;;;;5046727;28;20235;-66
2023/01/18 00:47:35;;;;;;;16.13;7.03;;;;;;;;;;5030603;28;20289;-66
2023/01/18 00:50:00;;;;;;;17.43;7.47;;;;;;;;;;5028879;28;20196;-66
2023/01/18 00:52:26;;;;;;;18.97;7.47;;;;;;;;;;5036600;28;20198;-66
2023/01/18 00:54:52;;;;;;;14.67;7.53;;;;;;;;;;5031783;28;20688;-66
2023/01/18 00:57:17;;;;;;;15.80;7.67;;;;;;;;;;5027797;28;20194;-66
2023/01/18 00:59:43;;;;;;;14.07;7.20;;;;;;;;;;5033754;28;20560;-66
2023/01/18 01:02:08;;;;;;;15.63;7.40;;;;;;;;;;5023491;28;20316;-66
2023/01/18 01:07:18;;;;;;;16.00;8.37;;;;;;;;;;5026764;28;20553;-66
2023/01/18 01:09:44;;;;;;;20.17;9.23;;;;;;;;;;5013628;28;20209;-66
2023/01/18 01:26:06;;;;;;;16.00;8.33;;;;;;;;;;5012401;28;20206;-66
2023/01/18 01:28:35;;;;;;;14.20;7.50;;;;;;;;;;5016182;28;20436;-66
2023/01/18 01:31:02;;;;;;;17.77;8.40;;;;;;;;;;5019916;28;20193;-66
2023/01/18 01:33:29;;;;;;;17.00;8.70;;;;;;;;;;5029172;28;20189;-65
2023/01/18 01:35:56;;;;;;;17.30;8.03;;;;;;;;;;5036208;28;20257;-66
2023/01/18 01:38:22;;;;;;;14.40;8.03;;;;;;;;;;5031174;28;20190;-66
2023/01/18 01:40:56;;;;;;;15.20;7.93;;;;;;;;;;5028170;28;20265;-66
2023/01/18 01:43:47;;;;;;;18.13;8.33;;;;;;;;;;5014105;28;20186;-66
2023/01/18 01:46:49;;;;;;;14.30;7.53;;;;;;;;;;5022434;28;20198;-66
2023/01/18 01:49:18;;;;;;;16.23;7.47;;;;;;;;;;5012301;28;20190;-66
2023/01/18 01:51:47;;;;;;;15.13;7.93;;;;;;;;;;5034057;28;20213;-66
2023/01/18 01:54:22;;;;;;;16.67;8.20;;;;;;;;;;5017025;28;20191;-66
2023/01/18 01:56:51;;;;;;;16.73;8.90;;;;;;;;;;5021329;28;20189;-66
2023/01/18 01:59:17;;;;;;;14.27;7.40;;;;;;;;;;5018565;28;20257;-65
2023/01/18 02:01:45;;;;;;;17.87;9.10;;;;;;;;;;5018394;28;20193;-66
2023/01/18 02:04:10;;;;;;;16.03;8.17;;;;;;;;;;5013337;28;20262;-65
2023/01/18 02:06:37;;;;;;;25.10;9.80;;;;;;;;;;5027932;28;20194;-66
2023/01/18 02:09:06;;;;;;;17.00;9.57;;;;;;;;;;5024834;28;20186;-65
2023/01/18 02:11:32;;;;;;;21.27;10.83;;;;;;;;;;5026828;28;20273;-65
2023/01/18 02:14:01;;;;;;;24.53;10.27;;;;;;;;;;5027761;28;20264;-66
2023/01/18 02:17:04;;;;;;;17.37;9.70;;;;;;;;;;5025476;28;20191;-66
2023/01/18 02:20:01;;;;;;;19.97;9.60;;;;;;;;;;5028882;28;20205;-67
2023/01/18 02:22:51;;;;;;;16.93;8.77;;;;;;;;;;5022937;28;20186;-68
2023/01/18 02:25:42;;;;;;;19.40;9.47;;;;;;;;;;5025768;28;20256;-67
2023/01/18 02:28:31;;;;;;;18.27;9.20;;;;;;;;;;5020506;28;20202;-67
2023/01/18 02:31:26;;;;;;;21.67;9.47;;;;;;;;;;5029729;28;20239;-67
2023/01/18 02:34:04;;;;;;;17.87;8.67;;;;;;;;;;5024607;28;20313;-67
2023/01/18 02:36:45;;;;;;;15.63;8.67;;;;;;;;;;5039937;28;20664;-67
2023/01/18 02:39:38;;;;;;;25.97;10.20;;;;;;;;;;5025593;28;20200;-67
2023/01/18 02:48:09;;;;;;;22.83;11.00;;;;;;;;;;5027209;28;20190;-67
2023/01/18 02:50:35;;;;;;;20.13;10.27;;;;;;;;;;5025173;28;20194;-67
2023/01/18 02:53:00;;;;;;;18.80;10.47;;;;;;;;;;5027558;28;20193;-66
2023/01/18 02:55:35;;;;;;;23.80;10.57;;;;;;;;;;5024533;28;20209;-66
2023/01/18 02:58:10;;;;;;;21.57;10.70;;;;;;;;;;5021367;28;20186;-67
2023/01/18 03:00:40;;;;;;;22.53;10.43;;;;;;;;;;5016818;28;20232;-66
2023/01/18 03:03:09;;;;;;;22.03;11.33;;;;;;;;;;5014735;28;20237;-66
2023/01/18 03:05:36;;;;;;;22.63;11.23;;;;;;;;;;5027472;28;20294;-66
2023/01/18 03:08:10;;;;;;;24.07;12.63;;;;;;;;;;5028369;28;20194;-66
2023/01/18 03:10:49;;;;;;;25.10;12.23;;;;;;;;;;5025884;28;20263;-66
2023/01/18 03:13:21;;;;;;;24.23;12.83;;;;;;;;;;5020388;28;20225;-66
2023/01/18 03:15:55;;;;;;;23.30;11.10;;;;;;;;;;5029501;28;20206;-67
2023/01/18 03:18:34;;;;;;;22.67;12.03;;;;;;;;;;5029074;28;20212;-66
2023/01/18 03:21:04;;;;;;;24.77;11.67;;;;;;;;;;5030939;28;20641;-67
2023/01/18 03:23:39;;;;;;;24.93;12.83;;;;;;;;;;5024648;28;20295;-66
2023/01/18 03:26:15;;;;;;;27.67;12.80;;;;;;;;;;5023220;28;20198;-66
2023/01/18 03:34:51;;;;;;;25.90;11.43;;;;;;;;;;5018996;28;20185;-67
2023/01/18 03:37:22;;;;;;;31.07;12.80;;;;;;;;;;5038622;28;20217;-66
2023/01/18 03:39:55;;;;;;;22.67;12.63;;;;;;;;;;5019020;28;20292;-66
2023/01/18 03:42:26;;;;;;;24.03;12.37;;;;;;;;;;5025934;28;20479;-67
2023/01/18 03:45:14;;;;;;;32.33;13.67;;;;;;;;;;5019576;28;20613;-66
2023/01/18 03:47:40;;;;;;;23.30;12.43;;;;;;;;;;5027902;28;20214;-67
2023/01/18 03:50:06;;;;;;;28.00;12.63;;;;;;;;;;5014821;28;20313;-66
2023/01/18 03:52:40;;;;;;;24.70;13.17;;;;;;;;;;5023243;28;20216;-66
2023/01/18 03:55:05;;;;;;;26.83;12.23;;;;;;;;;;5018162;28;20186;-66
2023/01/18 03:57:37;;;;;;;25.90;13.83;;;;;;;;;;5021240;28;20194;-66
2023/01/18 04:00:04;;;;;;;27.03;13.10;;;;;;;;;;5028807;28;20217;-66
2023/01/18 04:02:30;;;;;;;30.63;12.27;;;;;;;;;;5016668;28;20183;-66
2023/01/18 04:04:56;;;;;;;23.50;12.73;;;;;;;;;;5028138;28;20232;-66
2023/01/18 04:07:25;;;;;;;29.63;13.80;;;;;;;;;;5028002;28;20289;-66
2023/01/18 04:09:50;;;;;;;24.60;13.17;;;;;;;;;;5025819;28;20649;-66
2023/01/18 04:12:16;;;;;;;23.87;13.43;;;;;;;;;;5022072;28;20197;-66
2023/01/18 04:14:41;;;;;;;26.33;13.70;;;;;;;;;;5024765;28;20248;-66
2023/01/18 04:17:07;;;;;;;26.63;13.27;;;;;;;;;;5024086;28;20230;-66
2023/01/18 04:19:32;;;;;;;23.27;12.80;;;;;;;;;;5019780;28;20733;-66
2023/01/18 04:21:57;;;;;;;25.13;13.27;;;;;;;;;;5022172;28;20194;-66
2023/01/18 04:24:23;;;;;;;20.93;11.73;;;;;;;;;;5026133;28;20226;-66
2023/01/18 04:26:48;;;;;;;25.10;13.50;;;;;;;;;;5017354;28;20190;-66
2023/01/18 04:29:13;;;;;;;26.77;13.93;;;;;;;;;;5027895;28;20609;-66
2023/01/18 04:31:39;;;;;;;28.17;13.77;;;;;;;;;;5027105;28;20206;-65
2023/01/18 04:34:04;;;;;;;28.83;12.60;;;;;;;;;;5007833;28;20226;-65
2023/01/18 04:36:30;;;;;;;24.37;13.27;;;;;;;;;;5026879;28;20649;-66
2023/01/18 04:38:56;;;;;;;27.37;14.80;;;;;;;;;;5042353;28;20264;-66
2023/01/18 04:41:22;;;;;;;23.87;13.23;;;;;;;;;;5024206;28;20186;-66
2023/01/18 04:43:47;;;;;;;31.27;14.77;;;;;;;;;;5031056;28;20185;-66
2023/01/18 04:46:14;;;;;;;26.73;13.03;;;;;;;;;;5029922;28;20191;-66
2023/01/18 04:48:39;;;;;;;32.60;15.10;;;;;;;;;;5015751;28;20282;-66
2023/01/18 04:51:10;;;;;;;30.17;15.70;;;;;;;;;;5030270;28;20628;-66
2023/01/18 04:53:36;;;;;;;26.13;13.70;;;;;;;;;;5031868;28;20202;-66
2023/01/18 04:56:01;;;;;;;30.30;15.33;;;;;;;;;;5040657;28;20190;-66
2023/01/18 04:58:26;;;;;;;29.03;15.40;;;;;;;;;;5041585;28;20617;-66
2023/01/18 05:00:52;;;;;;;28.70;14.73;;;;;;;;;;5039326;28;20221;-66
2023/01/18 05:03:17;;;;;;;26.57;12.53;;;;;;;;;;5031597;28;20323;-66
2023/01/18 05:05:43;;;;;;;32.07;14.73;;;;;;;;;;5031604;28;20518;-66
2023/01/18 05:08:08;;;;;;;26.13;14.07;;;;;;;;;;5031266;28;20273;-66
2023/01/18 05:10:33;;;;;;;26.57;13.50;;;;;;;;;;5029227;28;20209;-65
2023/01/18 05:12:59;;;;;;;26.93;14.63;;;;;;;;;;5028571;28;20248;-67
2023/01/18 05:15:24;;;;;;;26.93;14.50;;;;;;;;;;5029267;28;20198;-66
2023/01/18 05:17:49;;;;;;;27.40;14.70;;;;;;;;;;5019344;28;20198;-67
2023/01/18 05:20:15;;;;;;;27.77;14.73;;;;;;;;;;5025774;28;20201;-66
2023/01/18 05:22:40;;;;;;;31.97;14.93;;;;;;;;;;5022825;28;20615;-66
2023/01/18 05:25:06;;;;;;;25.50;14.30;;;;;;;;;;5021967;28;20541;-66
2023/01/18 05:27:32;;;;;;;26.67;15.33;;;;;;;;;;5028696;28;20190;-66
2023/01/18 05:29:58;;;;;;;27.33;14.03;;;;;;;;;;5027161;28;20568;-66
2023/01/18 05:32:24;;;;;;;30.10;14.13;;;;;;;;;;5032287;28;20193;-66
2023/01/18 05:34:49;;;;;;;24.63;14.33;;;;;;;;;;5027001;28;20197;-66
2023/01/18 05:37:15;;;;;;;30.30;14.33;;;;;;;;;;5023440;28;20195;-66
2023/01/18 05:39:40;;;;;;;28.40;14.10;;;;;;;;;;5011711;28;20191;-66
2023/01/18 05:42:06;;;;;;;30.63;14.80;;;;;;;;;;5028043;28;20190;-66
2023/01/18 05:44:31;;;;;;;24.80;13.47;;;;;;;;;;5035317;28;20287;-65
2023/01/18 05:46:58;;;;;;;30.97;14.20;;;;;;;;;;5038158;28;20626;-66
2023/01/18 05:49:23;;;;;;;32.57;14.47;;;;;;;;;;5029015;28;20182;-65
2023/01/18 05:51:49;;;;;;;34.17;14.60;;;;;;;;;;5026436;28;20198;-66
2023/01/18 05:54:14;;;;;;;30.57;15.50;;;;;;;;;;5043869;28;20189;-66
2023/01/18 05:56:40;;;;;;;29.57;14.37;;;;;;;;;;5024376;28;20195;-66
2023/01/18 05:59:06;;;;;;;30.27;14.53;;;;;;;;;;5018873;28;20198;-66
2023/01/18 06:01:31;;;;;;;31.07;14.70;;;;;;;;;;5023962;28;20707;-66
2023/01/18 06:03:57;;;;;;;29.07;14.97;;;;;;;;;;5028233;28;20525;-66
2023/01/18 06:06:22;;;;;;;30.90;15.50;;;;;;;;;;5032661;28;20190;-66
2023/01/18 06:08:47;;;;;;;31.53;15.20;;;;;;;;;;5039386;28;20705;-66
2023/01/18 06:11:13;;;;;;;32.30;15.23;;;;;;;;;;5027893;28;20189;-66
2023/01/18 06:13:38;;;;;;;26.53;14.00;;;;;;;;;;5033764;28;20308;-66
2023/01/18 06:16:04;;;;;;;26.77;13.23;;;;;;;;;;5024436;28;20186;-66
2023/01/18 06:18:31;;;;;;;28.03;14.57;;;;;;;;;;5020170;28;20213;-66
2023/01/18 06:20:59;;;;;;;32.03;15.23;;;;;;;;;;5020225;28;20450;-66
2023/01/18 06:23:24;;;;;;;34.63;15.70;;;;;;;;;;5023652;28;20317;-67
2023/01/18 06:25:50;;;;;;;29.93;14.57;;;;;;;;;;5021666;28;20252;-67
2023/01/18 06:28:16;;;;;;;28.50;13.90;;;;;;;;;;5025555;28;20190;-67
2023/01/18 06:30:42;;;;;;;32.10;13.97;;;;;;;;;;5027351;28;20194;-67
2023/01/18 06:33:08;;;;;;;27.10;15.23;;;;;;;;;;5027282;28;20715;-67
2023/01/18 06:35:34;;;;;;;29.23;15.20;;;;;;;;;;5024698;28;20193;-67
2023/01/18 06:38:12;;;;;;;30.17;15.15;;;;;;;;;;4747799;28;10001248;-67
2023/01/18 06:40:38;;;;;;;35.33;15.10;;;;;;;;;;5015696;28;20433;-67
2023/01/18 06:43:04;;;;;;;27.63;14.27;;;;;;;;;;5031659;28;20693;-67
2023/01/18 06:45:29;;;;;;;26.90;13.73;;;;;;;;;;5020763;28;20206;-67
2023/01/18 06:47:54;;;;;;;28.10;15.37;;;;;;;;;;5021514;28;20206;-67
2023/01/18 06:50:20;;;;;;;33.03;14.53;;;;;;;;;;5026715;28;20198;-67
2023/01/18 06:52:46;;;;;;;25.07;13.90;;;;;;;;;;5027120;28;20297;-66
2023/01/18 06:55:13;;;;;;;28.27;14.33;;;;;;;;;;5026653;28;20688;-66
2023/01/18 06:57:38;;;;;;;29.13;14.70;;;;;;;;;;5023673;28;20252;-66
2023/01/18 07:00:05;;;;;;;27.73;14.97;;;;;;;;;;5023638;28;20674;-66
2023/01/18 07:02:34;;;;;;;25.47;14.03;;;;;;;;;;5017812;28;20254;-65
2023/01/18 07:05:00;;;;;;;25.63;13.60;;;;;;;;;;5022227;28;20240;-65
2023/01/18 07:07:26;;;;;;;28.00;15.40;;;;;;;;;;5019008;28;20222;-66
2023/01/18 07:09:51;;;;;;;27.87;14.40;;;;;;;;;;5024133;28;20242;-66
2023/01/18 07:12:17;;;;;;;24.70;14.10;;;;;;;;;;5021872;28;20653;-66
2023/01/18 07:14:42;;;;;;;26.63;14.53;;;;;;;;;;5014946;28;20182;-65
2023/01/18 07:17:08;;;;;;;27.27;14.67;;;;;;;;;;5021166;28;20223;-65
2023/01/18 07:19:33;;;;;;;29.97;14.83;;;;;;;;;;5019245;28;20201;-66
2023/01/18 07:21:59;;;;;;;26.53;14.30;;;;;;;;;;5034110;28;20288;-66
2023/01/18 07:24:24;;;;;;;27.67;14.33;;;;;;;;;;5041627;28;20221;-65
2023/01/18 07:26:50;;;;;;;27.10;14.00;;;;;;;;;;5039319;28;20194;-66
2023/01/18 07:29:15;;;;;;;25.47;14.17;;;;;;;;;;5040162;28;20264;-66
2023/01/18 07:31:40;;;;;;;32.37;14.40;;;;;;;;;;5041779;28;20247;-66
2023/01/18 07:34:07;;;;;;;26.67;13.97;;;;;;;;;;5043598;28;20178;-66
2023/01/18 07:36:33;;;;;;;31.90;13.93;;;;;;;;;;5033100;28;20209;-65
2023/01/18 07:39:00;;;;;;;25.30;13.83;;;;;;;;;;5041395;28;20548;-66
2023/01/18 07:41:25;;;;;;;24.67;15.10;;;;;;;;;;5039849;28;20189;-66
2023/01/18 07:43:52;;;;;;;29.63;15.50;;;;;;;;;;5041842;28;20197;-66
2023/01/18 07:46:19;;;;;;;27.23;14.57;;;;;;;;;;5037919;28;20220;-66
2023/01/18 07:48:46;;;;;;;26.87;14.60;;;;;;;;;;5034691;28;20186;-66
2023/01/18 07:51:12;;;;;;;27.93;14.13;;;;;;;;;;5035376;28;20190;-66
2023/01/18 07:53:38;;;;;;;24.77;14.27;;;;;;;;;;5034220;28;20266;-66
2023/01/18 07:56:10;;;;;;;26.73;13.20;;;;;;;;;;5034937;28;20188;-68
2023/01/18 07:58:36;;;;;;;28.27;14.37;;;;;;;;;;5040242;28;20201;-66
2023/01/18 08:01:10;;;;;;;25.20;13.97;;;;;;;;;;5024612;28;20217;-66
2023/01/18 08:03:36;;;;;;;23.57;12.83;;;;;;;;;;5016442;28;20505;-66
2023/01/18 08:06:04;;;;;;;22.73;13.23;;;;;;;;;;5030269;28;20233;-66
2023/01/18 08:08:30;;;;;;;24.47;14.47;;;;;;;;;;5031521;28;20221;-66
2023/01/18 08:10:57;;;;;;;26.97;13.73;;;;;;;;;;5025345;28;20733;-66
2023/01/18 08:13:23;;;;;;;23.87;13.30;;;;;;;;;;5017143;28;20217;-67
2023/01/18 08:15:49;;;;;;;26.87;13.70;;;;;;;;;;5028192;28;20670;-66
2023/01/18 08:18:14;;;;;;;21.37;13.20;;;;;;;;;;5028428;28;20170;-66
2023/01/18 08:20:44;;;;;;;26.50;13.10;;;;;;;;;;5037659;28;20343;-66
2023/01/18 08:23:09;;;;;;;23.77;13.43;;;;;;;;;;5039359;28;20237;-66
2023/01/18 08:25:34;;;;;;;22.30;13.43;;;;;;;;;;5021536;28;20232;-66
2023/01/18 08:28:01;;;;;;;22.90;12.70;;;;;;;;;;5023247;28;20319;-67
2023/01/18 08:30:30;;;;;;;24.93;13.57;;;;;;;;;;5038257;28;20193;-66
2023/01/18 08:32:57;;;;;;;22.10;12.67;;;;;;;;;;5030845;28;20186;-66
2023/01/18 08:35:28;;;;;;;20.60;12.23;;;;;;;;;;5026641;28;20244;-66
2023/01/18 08:37:53;;;;;;;26.07;12.90;;;;;;;;;;5027572;28;20194;-66
2023/01/18 08:40:20;;;;;;;22.87;12.17;;;;;;;;;;5020165;28;20225;-66
2023/01/18 08:42:46;;;;;;;21.80;11.80;;;;;;;;;;5020496;28;20396;-66
2023/01/18 08:45:13;;;;;;;23.97;11.23;;;;;;;;;;5026935;28;20746;-66
2023/01/18 08:47:39;;;;;;;21.27;12.43;;;;;;;;;;5028818;28;20224;-66
2023/01/18 08:50:07;;;;;;;18.90;11.23;;;;;;;;;;5030308;28;20640;-66
2023/01/18 08:52:33;;;;;;;21.93;11.37;;;;;;;;;;5018562;28;20222;-66
2023/01/18 08:55:00;;;;;;;24.77;11.27;;;;;;;;;;5020024;28;20672;-66
2023/01/18 08:57:26;;;;;;;19.10;11.37;;;;;;;;;;5025574;28;20292;-66
2023/01/18 08:59:53;;;;;;;22.00;10.50;;;;;;;;;;5024829;28;20241;-66
2023/01/18 09:02:18;;;;;;;17.90;10.43;;;;;;;;;;5020924;28;20208;-66
2023/01/18 09:04:47;;;;;;;19.73;11.20;;;;;;;;;;5024116;28;20630;-66
2023/01/18 09:07:16;;;;;;;18.27;10.13;;;;;;;;;;5016895;28;20186;-66
2023/01/18 09:09:43;;;;;;;19.23;11.00;;;;;;;;;;5015277;28;20237;-66
2023/01/18 09:12:09;;;;;;;18.53;10.47;;;;;;;;;;5025192;28;20186;-66
2023/01/18 09:14:35;;;;;;;16.97;9.97;;;;;;;;;;5028165;28;20213;-66
2023/01/18 09:17:00;;;;;;;14.87;9.23;;;;;;;;;;5016286;28;20270;-66
2023/01/18 09:19:25;;;;;;;19.63;9.33;;;;;;;;;;5014508;28;20198;-67
2023/01/18 09:21:51;;;;;;;23.37;9.20;;;;;;;;;;5018418;28;20559;-66
2023/01/18 09:24:16;;;;;;;15.23;9.17;;;;;;;;;;5022341;28;20233;-66
2023/01/18 09:26:42;;;;;;;15.13;8.97;;;;;;;;;;5015468;28;20317;-66
2023/01/18 09:29:07;;;;;;;16.70;9.23;;;;;;;;;;5024383;28;20206;-66
2023/01/18 09:31:33;;;;;;;16.77;10.20;;;;;;;;;;5009630;28;20232;-67
2023/01/18 09:33:59;;;;;;;16.97;10.13;;;;;;;;;;5030149;28;20211;-66
2023/01/18 09:36:26;;;;;;;16.63;9.53;;;;;;;;;;5020624;28;20209;-66
2023/01/18 09:38:53;;;;;;;15.37;9.87;;;;;;;;;;5017173;28;20194;-66
2023/01/18 09:41:35;;;;;;;13.57;9.00;;;;;;;;;;5023478;28;20190;-66
2023/01/18 09:44:19;;;;;;;17.03;8.83;;;;;;;;;;5011966;28;20202;-66
2023/01/18 09:46:50;;;;;;;16.37;9.07;;;;;;;;;;5025457;28;20259;-66
2023/01/18 09:49:34;;;;;;;14.67;8.97;;;;;;;;;;5030601;28;20588;-66
2023/01/18 09:52:24;;;;;;;15.00;8.40;;;;;;;;;;5031453;28;20213;-66
2023/01/18 09:55:23;;;;;;;16.37;8.43;;;;;;;;;;5029285;28;20197;-66
2023/01/18 09:58:03;;;;;;;16.93;8.67;;;;;;;;;;5036190;28;20193;-66
2023/01/18 10:00:32;;;;;;;15.50;8.70;;;;;;;;;;5032439;28;20214;-66
2023/01/18 10:03:03;;;;;;;15.63;8.77;;;;;;;;;;5027619;28;20187;-66
2023/01/18 10:05:33;;;;;;;16.23;9.23;;;;;;;;;;5035654;28;20210;-66
2023/01/18 10:08:12;;;;;;;14.63;8.53;;;;;;;;;;5027540;28;20269;-66
2023/01/18 10:10:57;;;;;;;15.27;8.07;;;;;;;;;;5027952;28;20632;-66
2023/01/18 10:13:44;;;;;;;16.63;7.93;;;;;;;;;;5011681;28;20194;-65
2023/01/18 10:16:15;;;;;;;17.00;8.50;;;;;;;;;;5023428;28;20178;-65
2023/01/18 10:18:44;;;;;;;17.20;7.77;;;;;;;;;;5029223;28;20189;-65
2023/01/18 10:21:17;;;;;;;16.20;7.77;;;;;;;;;;5018918;28;20190;-65
2023/01/18 10:24:16;;;;;;;11.67;7.43;;;;;;;;;;5028484;28;20549;-66
2023/01/18 10:26:43;;;;;;;17.53;10.00;;;;;;;;;;5013661;28;20198;-65
2023/01/18 10:29:32;;;;;;;12.77;7.80;;;;;;;;;;5028060;28;20182;-65
2023/01/18 10:32:02;;;;;;;13.70;7.27;;;;;;;;;;5026192;28;20201;-66
2023/01/18 10:34:38;;;;;;;13.97;8.53;;;;;;;;;;5021225;28;20274;-66
2023/01/18 10:37:24;;;;;;;15.13;7.83;;;;;;;;;;5021051;28;20251;-66
2023/01/18 10:39:56;;;;;;;15.77;7.57;;;;;;;;;;5029567;28;20194;-66
2023/01/18 10:42:25;;;;;;;16.83;7.90;;;;;;;;;;5020331;28;20716;-66
2023/01/18 10:44:51;;;;;;;12.07;6.67;;;;;;;;;;5016034;28;20205;-66
2023/01/18 10:47:17;;;;;;;13.30;6.97;;;;;;;;;;5025934;28;20583;-65
2023/01/18 10:49:45;;;;;;;12.80;7.00;;;;;;;;;;5014759;28;20182;-66
2023/01/18 10:52:23;;;;;;;11.23;6.17;;;;;;;;;;5017311;28;20273;-66
2023/01/18 10:55:00;;;;;;;10.93;6.63;;;;;;;;;;5012495;28;20186;-66
2023/01/18 10:57:32;;;;;;;9.43;6.17;;;;;;;;;;5025758;28;20186;-66
2023/01/18 10:59:58;;;;;;;12.70;6.70;;;;;;;;;;5029292;28;20539;-65
2023/01/18 11:02:35;;;;;;;12.50;6.57;;;;;;;;;;5021623;28;20220;-66
2023/01/18 11:05:18;;;;;;;11.37;6.53;;;;;;;;;;5023357;28;20206;-66
2023/01/18 11:07:43;;;;;;;14.57;7.10;;;;;;;;;;5017128;28;20201;-66
2023/01/18 11:10:27;;;;;;;14.43;7.43;;;;;;;;;;5020413;28;20191;-66
2023/01/18 11:12:53;;;;;;;10.30;6.87;;;;;;;;;;5026512;28;20637;-66
2023/01/18 11:15:18;;;;;;;13.67;7.10;;;;;;;;;;5023941;28;20212;-66
2023/01/18 11:17:54;;;;;;;11.20;6.60;;;;;;;;;;5020586;28;20190;-66
2023/01/18 11:20:28;;;;;;;19.90;9.80;;;;;;;;;;5018859;28;20208;-67
2023/01/18 11:23:00;;;;;;;13.67;7.53;;;;;;;;;;5019455;28;20186;-66
2023/01/18 11:25:33;;;;;;;11.80;5.73;;;;;;;;;;5023105;28;20214;-67
2023/01/18 11:28:06;;;;;;;12.93;5.87;;;;;;;;;;5023666;28;20891;-67
2023/01/18 11:30:32;;;;;;;12.93;6.77;;;;;;;;;;5021976;28;20190;-66
2023/01/18 11:32:58;;;;;;;10.40;5.70;;;;;;;;;;5029545;28;20198;-68
2023/01/18 11:35:31;;;;;;;10.00;6.30;;;;;;;;;;5018450;28;20190;-67
2023/01/18 11:38:02;;;;;;;9.53;5.80;;;;;;;;;;5029194;28;20248;-67
2023/01/18 11:40:29;;;;;;;9.53;5.83;;;;;;;;;;5025368;28;20285;-66
2023/01/18 11:43:19;;;;;;;10.47;5.50;;;;;;;;;;5029635;28;20218;-67
2023/01/18 11:45:53;;;;;;;10.57;5.80;;;;;;;;;;5034143;28;20292;-67
2023/01/18 11:48:43;;;;;;;10.97;5.33;;;;;;;;;;5027506;28;20186;-67
2023/01/18 11:51:23;;;;;;;10.53;5.67;;;;;;;;;;5028513;28;20186;-66
2023/01/18 11:54:21;;;;;;;10.93;5.57;;;;;;;;;;5015416;28;20178;-66
2023/01/18 11:56:49;;;;;;;8.33;4.77;;;;;;;;;;5024457;28;20240;-67
2023/01/18 11:59:33;;;;;;;7.30;5.03;;;;;;;;;;5025386;28;20490;-67
2023/01/18 12:02:24;;;;;;;8.87;4.90;;;;;;;;;;5027870;28;20238;-67
2023/01/18 12:05:02;;;;;;;8.40;5.10;;;;;;;;;;5022057;28;20213;-66
2023/01/18 12:08:05;;;;;;;9.23;5.07;;;;;;;;;;5028905;28;20197;-67
2023/01/18 12:10:52;;;;;;;8.80;5.00;;;;;;;;;;5014160;28;20237;-67
2023/01/18 12:13:48;;;;;;;10.10;5.13;;;;;;;;;;5016373;28;20529;-66
2023/01/18 12:16:19;;;;;;;7.73;4.90;;;;;;;;;;5037008;28;20173;-67
2023/01/18 12:18:47;;;;;;;9.00;5.10;;;;;;;;;;5015730;28;20218;-67
2023/01/18 12:21:30;;;;;;;9.63;4.60;;;;;;;;;;5019003;28;20603;-67
2023/01/18 12:24:15;;;;;;;8.33;4.83;;;;;;;;;;5015714;28;20242;-67
2023/01/18 12:26:54;;;;;;;9.87;4.50;;;;;;;;;;5027217;28;20284;-67
2023/01/18 12:29:41;;;;;;;10.20;5.07;;;;;;;;;;5012326;28;20205;-67
2023/01/18 12:32:27;;;;;;;11.10;4.40;;;;;;;;;;5029924;28;20681;-67
2023/01/18 12:34:57;;;;;;;7.73;4.30;;;;;;;;;;5029225;28;20205;-67
2023/01/18 12:37:30;;;;;;;9.93;4.00;;;;;;;;;;5016669;28;20205;-67
2023/01/18 12:40:43;;;;;;;8.70;4.60;;;;;;;;;;5017820;28;20632;-67
2023/01/18 12:43:30;;;;;;;7.77;4.57;;;;;;;;;;5022197;28;20185;-67
2023/01/18 12:46:03;;;;;;;9.13;4.43;;;;;;;;;;5035150;28;20304;-67
2023/01/18 12:48:56;;;;;;;11.97;4.33;;;;;;;;;;5023708;28;20542;-67
2023/01/18 12:51:25;;;;;;;9.10;4.37;;;;;;;;;;5019789;28;20599;-66
2023/01/18 12:54:23;;;;;;;9.90;4.77;;;;;;;;;;5027753;28;20594;-67
2023/01/18 12:56:53;;;;;;;11.27;4.00;;;;;;;;;;5027186;28;20226;-67
2023/01/18 12:59:24;;;;;;;8.37;4.30;;;;;;;;;;5029144;28;20325;-67
2023/01/18 13:02:03;;;;;;;9.50;4.03;;;;;;;;;;5030099;28;20598;-67
2023/01/18 13:04:35;;;;;;;10.53;4.17;;;;;;;;;;5032144;28;20583;-67
2023/01/18 13:07:06;;;;;;;6.53;4.07;;;;;;;;;;5026669;28;20187;-67
2023/01/18 13:09:37;;;;;;;8.93;4.00;;;;;;;;;;5030853;28;20178;-67
2023/01/18 13:12:04;;;;;;;8.53;3.83;;;;;;;;;;5048486;28;20220;-67
2023/01/18 13:14:44;;;;;;;7.97;4.60;;;;;;;;;;5036906;28;20178;-67
2023/01/18 13:17:31;;;;;;;12.57;6.27;;;;;;;;;;5024881;28;20343;-67
2023/01/18 13:20:04;;;;;;;9.27;4.03;;;;;;;;;;5035241;28;20198;-67
2023/01/18 13:22:43;;;;;;;8.27;3.90;;;;;;;;;;5026878;28;20186;-67
2023/01/18 13:25:26;;;;;;;8.57;3.83;;;;;;;;;;5045658;28;20252;-67
2023/01/18 13:28:02;;;;;;;6.67;4.10;;;;;;;;;;5040546;28;20193;-67
2023/01/18 13:30:32;;;;;;;6.67;3.80;;;;;;;;;;5047690;28;20620;-66
2023/01/18 13:32:58;;;;;;;5.90;3.97;;;;;;;;;;5042372;28;20185;-67
2023/01/18 13:35:32;;;;;;;8.70;3.83;;;;;;;;;;5036688;28;20776;-66
2023/01/18 13:38:10;;;;;;;11.67;3.90;;;;;;;;;;5048237;28;20193;-67
2023/01/18 13:40:40;;;;;;;10.90;4.00;;;;;;;;;;5049385;28;20185;-66
2023/01/18 13:43:28;;;;;;;10.50;4.23;;;;;;;;;;5035395;28;20197;-67
2023/01/18 13:46:01;;;;;;;6.67;3.90;;;;;;;;;;5028891;28;20210;-67
2023/01/18 13:48:49;;;;;;;8.77;4.23;;;;;;;;;;5039869;28;20182;-66
2023/01/18 13:51:40;;;;;;;6.37;4.00;;;;;;;;;;5029108;28;20197;-66
2023/01/18 13:54:10;;;;;;;12.40;4.60;;;;;;;;;;5034136;28;20194;-67
2023/01/18 13:56:37;;;;;;;11.60;4.20;;;;;;;;;;5021249;28;20544;-67
2023/01/18 13:59:04;;;;;;;9.33;4.57;;;;;;;;;;5023410;28;20190;-67
2023/01/18 14:01:35;;;;;;;9.57;4.13;;;;;;;;;;5028663;28;20645;-66
2023/01/18 14:04:26;;;;;;;8.20;4.13;;;;;;;;;;5031595;28;20205;-66
2023/01/18 14:06:54;;;;;;;7.97;4.80;;;;;;;;;;5022743;28;20212;-67
2023/01/18 14:09:34;;;;;;;7.00;4.30;;;;;;;;;;5023887;28;20654;-67
2023/01/18 14:12:00;;;;;;;7.30;4.10;;;;;;;;;;5029526;28;20253;-67
2023/01/18 14:14:31;;;;;;;9.37;4.90;;;;;;;;;;5021331;28;20269;-67
2023/01/18 14:17:00;;;;;;;8.77;4.47;;;;;;;;;;5032198;28;20271;-67
2023/01/18 14:19:28;;;;;;;9.03;4.27;;;;;;;;;;5020484;28;20685;-67
2023/01/18 14:22:14;;;;;;;7.73;4.33;;;;;;;;;;5041373;28;20269;-67
2023/01/18 14:25:16;;;;;;;10.83;5.23;;;;;;;;;;5030827;28;20226;-67
2023/01/18 14:27:45;;;;;;;9.27;4.70;;;;;;;;;;5034509;28;20258;-67
2023/01/18 14:30:26;;;;;;;9.50;4.73;;;;;;;;;;5042770;28;20201;-67
2023/01/18 14:33:14;;;;;;;8.17;4.40;;;;;;;;;;5040393;28;20247;-66
2023/01/18 14:35:52;;;;;;;8.23;4.93;;;;;;;;;;5043084;28;20178;-67
2023/01/18 14:38:18;;;;;;;10.80;4.83;;;;;;;;;;5042780;28;20225;-66
2023/01/18 14:40:49;;;;;;;10.23;4.70;;;;;;;;;;5038917;28;20637;-67
2023/01/18 14:43:28;;;;;;;13.10;5.17;;;;;;;;;;5024644;28;20193;-66
2023/01/18 14:46:04;;;;;;;10.77;4.53;;;;;;;;;;5029389;28;20213;-67
2023/01/18 14:48:33;;;;;;;8.37;5.30;;;;;;;;;;5035322;28;20260;-66
2023/01/18 14:50:59;;;;;;;6.70;4.70;;;;;;;;;;5041083;28;20200;-66
2023/01/18 14:53:29;;;;;;;6.70;5.00;;;;;;;;;;5031959;28;20190;-67
2023/01/18 14:56:15;;;;;;;7.87;5.07;;;;;;;;;;5035928;28;20197;-66
2023/01/18 14:58:54;;;;;;;11.10;5.03;;;;;;;;;;5029050;28;20181;-67
2023/01/18 15:01:27;;;;;;;9.17;5.13;;;;;;;;;;5033096;28;20764;-67
2023/01/18 15:03:58;;;;;;;8.17;4.93;;;;;;;;;;5030731;28;20567;-66
2023/01/18 15:06:35;;;;;;;10.40;5.40;;;;;;;;;;5028787;28;20213;-67
2023/01/18 15:09:04;;;;;;;9.43;4.87;;;;;;;;;;5024108;28;20217;-67
2023/01/18 15:11:31;;;;;;;7.30;5.13;;;;;;;;;;5030207;28;20191;-67
2023/01/18 15:13:56;;;;;;;8.17;4.90;;;;;;;;;;5023148;28;20201;-67
2023/01/18 15:16:28;;;;;;;11.23;4.83;;;;;;;;;;5020733;28;20198;-67
2023/01/18 15:18:55;;;;;;;12.23;5.10;;;;;;;;;;5028882;28;20200;-67
2023/01/18 15:21:23;;;;;;;10.43;5.50;;;;;;;;;;5026441;28;20273;-67